Apuarema, Brazil
Current Conditions -  °F | °C
As of 6:00 PM on Thursday 18 Dec 2014 (Local Time) from SBIL Reporting Station
Broken Clouds Broken Clouds  
Wind Chill: 77°   Ceiling: 10000
Heat Index: 78°   Visibility: 6mi
Dew Point: 72°   Wind: 6mph
Humidity: 83%   Direction: 340°NNW
Pressure: 29.85"   Gusts: NA
Location:  13.9°S, 39.75°W
Report Text: SBIL 182100Z 34005KT 9999 SCT020 BKN100 25/22 Q1011
Loading
Personal Weather Stations






























Interactive Weather Map New forecast layout! Learn more

10-Day Weather Forecast

Advertisements
Track Severe Weather on mobile